sensor_id;sensor_type;location;lat;lon;timestamp;P1;durP1;ratioP1;P2;durP2;ratioP2
37971;SDS011;23794;48.234;8.344;2023-02-28T00:00:16;2.97;;;2.20;;
37971;SDS011;23794;48.234;8.344;2023-02-28T00:02:43;4.88;;;2.58;;
37971;SDS011;23794;48.234;8.344;2023-02-28T00:05:12;3.42;;;2.25;;
37971;SDS011;23794;48.234;8.344;2023-02-28T00:07:40;3.95;;;2.60;;
37971;SDS011;23794;48.234;8.344;2023-02-28T00:10:09;3.35;;;2.00;;
37971;SDS011;23794;48.234;8.344;2023-02-28T00:12:38;4.07;;;2.30;;
37971;SDS011;23794;48.234;8.344;2023-02-28T00:15:05;3.95;;;2.28;;
37971;SDS011;23794;48.234;8.344;2023-02-28T00:17:36;4.30;;;2.10;;
37971;SDS011;23794;48.234;8.344;2023-02-28T00:20:04;4.07;;;1.73;;
37971;SDS011;23794;48.234;8.344;2023-02-28T00:22:34;5.22;;;2.33;;
37971;SDS011;23794;48.234;8.344;2023-02-28T00:25:01;5.10;;;2.38;;
37971;SDS011;23794;48.234;8.344;2023-02-28T00:27:27;3.58;;;2.08;;
37971;SDS011;23794;48.234;8.344;2023-02-28T00:29:54;4.15;;;2.00;;
37971;SDS011;23794;48.234;8.344;2023-02-28T00:32:20;5.68;;;2.47;;
37971;SDS011;23794;48.234;8.344;2023-02-28T00:34:47;3.65;;;2.28;;
37971;SDS011;23794;48.234;8.344;2023-02-28T00:37:14;3.13;;;2.17;;
37971;SDS011;23794;48.234;8.344;2023-02-28T00:39:40;2.78;;;2.03;;
37971;SDS011;23794;48.234;8.344;2023-02-28T00:42:07;3.13;;;2.13;;
37971;SDS011;23794;48.234;8.344;2023-02-28T00:44:33;4.90;;;2.30;;
37971;SDS011;23794;48.234;8.344;2023-02-28T00:47:00;3.35;;;1.88;;
37971;SDS011;23794;48.234;8.344;2023-02-28T00:49:27;4.15;;;2.60;;
37971;SDS011;23794;48.234;8.344;2023-02-28T00:51:54;7.05;;;2.60;;
37971;SDS011;23794;48.234;8.344;2023-02-28T00:54:22;4.25;;;2.05;;
37971;SDS011;23794;48.234;8.344;2023-02-28T00:56:49;2.78;;;1.83;;
37971;SDS011;23794;48.234;8.344;2023-02-28T00:59:16;2.47;;;1.92;;
37971;SDS011;23794;48.234;8.344;2023-02-28T01:01:46;5.00;;;2.40;;
37971;SDS011;23794;48.234;8.344;2023-02-28T01:04:13;3.90;;;2.15;;
37971;SDS011;23794;48.234;8.344;2023-02-28T01:06:40;3.38;;;1.92;;
37971;SDS011;23794;48.234;8.344;2023-02-28T01:09:09;4.07;;;2.47;;
37971;SDS011;23794;48.234;8.344;2023-02-28T01:11:36;4.55;;;2.33;;
37971;SDS011;23794;48.234;8.344;2023-02-28T01:14:04;4.60;;;2.08;;
37971;SDS011;23794;48.234;8.344;2023-02-28T01:16:30;3.50;;;2.05;;
37971;SDS011;23794;48.234;8.344;2023-02-28T01:18:57;4.35;;;2.55;;
37971;SDS011;23794;48.234;8.344;2023-02-28T01:21:24;4.55;;;2.60;;
37971;SDS011;23794;48.234;8.344;2023-02-28T01:23:55;3.63;;;2.00;;
37971;SDS011;23794;48.234;8.344;2023-02-28T01:26:23;4.10;;;2.55;;
37971;SDS011;23794;48.234;8.344;2023-02-28T01:28:50;3.50;;;1.83;;
37971;SDS011;23794;48.234;8.344;2023-02-28T01:31:17;5.45;;;2.42;;
37971;SDS011;23794;48.234;8.344;2023-02-28T01:33:45;3.42;;;2.38;;
37971;SDS011;23794;48.234;8.344;2023-02-28T01:36:14;5.45;;;2.20;;
37971;SDS011;23794;48.234;8.344;2023-02-28T01:38:42;5.95;;;2.22;;
37971;SDS011;23794;48.234;8.344;2023-02-28T01:41:11;5.05;;;2.35;;
37971;SDS011;23794;48.234;8.344;2023-02-28T01:46:08;3.67;;;2.72;;
37971;SDS011;23794;48.234;8.344;2023-02-28T01:48:37;3.38;;;2.53;;
37971;SDS011;23794;48.234;8.344;2023-02-28T01:51:08;5.93;;;2.50;;
37971;SDS011;23794;48.234;8.344;2023-02-28T01:53:44;4.50;;;2.38;;
37971;SDS011;23794;48.234;8.344;2023-02-28T01:56:16;3.70;;;2.47;;
37971;SDS011;23794;48.234;8.344;2023-02-28T01:58:49;6.95;;;2.60;;
37971;SDS011;23794;48.234;8.344;2023-02-28T02:01:18;3.58;;;2.50;;
37971;SDS011;23794;48.234;8.344;2023-02-28T02:03:49;4.03;;;2.55;;
37971;SDS011;23794;48.234;8.344;2023-02-28T02:06:33;3.53;;;1.88;;
37971;SDS011;23794;48.234;8.344;2023-02-28T02:09:05;3.40;;;2.20;;
37971;SDS011;23794;48.234;8.344;2023-02-28T02:11:32;4.55;;;2.78;;
37971;SDS011;23794;48.234;8.344;2023-02-28T02:14:19;3.22;;;1.98;;
37971;SDS011;23794;48.234;8.344;2023-02-28T02:22:37;5.18;;;2.90;;
37971;SDS011;23794;48.234;8.344;2023-02-28T02:25:40;4.07;;;2.35;;
37971;SDS011;23794;48.234;8.344;2023-02-28T02:28:22;4.00;;;2.30;;
37971;SDS011;23794;48.234;8.344;2023-02-28T02:36:59;3.42;;;2.20;;
37971;SDS011;23794;48.234;8.344;2023-02-28T02:39:44;6.50;;;2.58;;
37971;SDS011;23794;48.234;8.344;2023-02-28T02:42:39;3.53;;;2.33;;
37971;SDS011;23794;48.234;8.344;2023-02-28T02:45:38;2.85;;;2.10;;
37971;SDS011;23794;48.234;8.344;2023-02-28T02:48:11;3.38;;;2.08;;
37971;SDS011;23794;48.234;8.344;2023-02-28T02:50:49;4.10;;;2.35;;
37971;SDS011;23794;48.234;8.344;2023-02-28T02:53:22;4.75;;;2.50;;
37971;SDS011;23794;48.234;8.344;2023-02-28T02:55:55;5.13;;;1.98;;
37971;SDS011;23794;48.234;8.344;2023-02-28T02:58:25;4.70;;;2.85;;
37971;SDS011;23794;48.234;8.344;2023-02-28T03:00:57;3.15;;;2.25;;
37971;SDS011;23794;48.234;8.344;2023-02-28T03:03:26;5.60;;;2.50;;
37971;SDS011;23794;48.234;8.344;2023-02-28T03:05:59;4.45;;;2.47;;
37971;SDS011;23794;48.234;8.344;2023-02-28T03:08:28;4.53;;;2.85;;
37971;SDS011;23794;48.234;8.344;2023-02-28T03:11:00;3.28;;;2.28;;
37971;SDS011;23794;48.234;8.344;2023-02-28T03:13:36;3.38;;;2.55;;
37971;SDS011;23794;48.234;8.344;2023-02-28T03:22:11;3.30;;;2.35;;
37971;SDS011;23794;48.234;8.344;2023-02-28T03:27:54;4.53;;;2.63;;
37971;SDS011;23794;48.234;8.344;2023-02-28T03:30:31;6.72;;;2.80;;
37971;SDS011;23794;48.234;8.344;2023-02-28T03:35:40;5.68;;;3.58;;
37971;SDS011;23794;48.234;8.344;2023-02-28T03:38:17;5.82;;;3.67;;
37971;SDS011;23794;48.234;8.344;2023-02-28T03:40:55;3.78;;;2.50;;
37971;SDS011;23794;48.234;8.344;2023-02-28T03:43:29;4.80;;;3.25;;
37971;SDS011;23794;48.234;8.344;2023-02-28T03:46:01;4.95;;;2.90;;
37971;SDS011;23794;48.234;8.344;2023-02-28T03:51:44;5.90;;;2.65;;
37971;SDS011;23794;48.234;8.344;2023-02-28T03:54:14;5.05;;;2.85;;
37971;SDS011;23794;48.234;8.344;2023-02-28T03:56:47;4.15;;;3.10;;
37971;SDS011;23794;48.234;8.344;2023-02-28T03:59:21;6.68;;;3.60;;
37971;SDS011;23794;48.234;8.344;2023-02-28T04:01:53;4.85;;;3.25;;
37971;SDS011;23794;48.234;8.344;2023-02-28T04:04:21;6.45;;;3.63;;
37971;SDS011;23794;48.234;8.344;2023-02-28T04:06:49;6.20;;;3.28;;
37971;SDS011;23794;48.234;8.344;2023-02-28T04:09:17;6.25;;;3.55;;
37971;SDS011;23794;48.234;8.344;2023-02-28T04:11:46;4.15;;;2.97;;
37971;SDS011;23794;48.234;8.344;2023-02-28T04:14:17;7.68;;;3.83;;
37971;SDS011;23794;48.234;8.344;2023-02-28T04:16:44;6.97;;;3.60;;
37971;SDS011;23794;48.234;8.344;2023-02-28T04:19:12;5.60;;;3.42;;
37971;SDS011;23794;48.234;8.344;2023-02-28T04:21:43;5.63;;;3.60;;
37971;SDS011;23794;48.234;8.344;2023-02-28T04:24:13;4.80;;;3.08;;
37971;SDS011;23794;48.234;8.344;2023-02-28T04:26:43;7.03;;;4.47;;
37971;SDS011;23794;48.234;8.344;2023-02-28T04:29:12;9.23;;;3.20;;
37971;SDS011;23794;48.234;8.344;2023-02-28T04:31:40;4.00;;;2.88;;
37971;SDS011;23794;48.234;8.344;2023-02-28T04:34:07;6.88;;;3.53;;
37971;SDS011;23794;48.234;8.344;2023-02-28T04:36:33;5.90;;;3.80;;
37971;SDS011;23794;48.234;8.344;2023-02-28T04:39:00;6.78;;;4.18;;
37971;SDS011;23794;48.234;8.344;2023-02-28T04:41:27;6.93;;;4.05;;
37971;SDS011;23794;48.234;8.344;2023-02-28T04:43:57;5.10;;;3.55;;
37971;SDS011;23794;48.234;8.344;2023-02-28T04:46:24;6.25;;;3.88;;
37971;SDS011;23794;48.234;8.344;2023-02-28T04:48:50;6.05;;;3.50;;
37971;SDS011;23794;48.234;8.344;2023-02-28T04:51:17;15.65;;;4.32;;
37971;SDS011;23794;48.234;8.344;2023-02-28T04:53:45;6.25;;;3.80;;
37971;SDS011;23794;48.234;8.344;2023-02-28T04:56:13;4.93;;;3.85;;
37971;SDS011;23794;48.234;8.344;2023-02-28T04:58:41;7.03;;;4.25;;
37971;SDS011;23794;48.234;8.344;2023-02-28T05:01:18;6.05;;;3.70;;
37971;SDS011;23794;48.234;8.344;2023-02-28T05:03:50;6.97;;;3.85;;
37971;SDS011;23794;48.234;8.344;2023-02-28T05:06:18;7.10;;;3.92;;
37971;SDS011;23794;48.234;8.344;2023-02-28T05:08:46;6.57;;;4.03;;
37971;SDS011;23794;48.234;8.344;2023-02-28T05:11:20;7.53;;;4.00;;
37971;SDS011;23794;48.234;8.344;2023-02-28T05:13:50;5.68;;;3.83;;
37971;SDS011;23794;48.234;8.344;2023-02-28T05:16:18;4.97;;;3.78;;
37971;SDS011;23794;48.234;8.344;2023-02-28T05:18:46;9.45;;;5.07;;
37971;SDS011;23794;48.234;8.344;2023-02-28T05:21:32;7.40;;;4.47;;
37971;SDS011;23794;48.234;8.344;2023-02-28T05:24:01;6.60;;;3.75;;
37971;SDS011;23794;48.234;8.344;2023-02-28T05:26:36;6.70;;;4.15;;
37971;SDS011;23794;48.234;8.344;2023-02-28T05:29:04;8.00;;;4.35;;
37971;SDS011;23794;48.234;8.344;2023-02-28T05:31:31;8.25;;;4.47;;
37971;SDS011;23794;48.234;8.344;2023-02-28T05:33:58;6.75;;;4.40;;
37971;SDS011;23794;48.234;8.344;2023-02-28T05:36:25;8.10;;;4.10;;
37971;SDS011;23794;48.234;8.344;2023-02-28T05:38:51;5.70;;;4.28;;
37971;SDS011;23794;48.234;8.344;2023-02-28T05:41:19;9.95;;;5.35;;
37971;SDS011;23794;48.234;8.344;2023-02-28T05:43:46;8.00;;;4.95;;
37971;SDS011;23794;48.234;8.344;2023-02-28T05:46:14;6.07;;;4.40;;
37971;SDS011;23794;48.234;8.344;2023-02-28T05:48:41;7.95;;;4.18;;
37971;SDS011;23794;48.234;8.344;2023-02-28T05:51:09;8.30;;;5.68;;
37971;SDS011;23794;48.234;8.344;2023-02-28T05:53:36;7.07;;;5.20;;
37971;SDS011;23794;48.234;8.344;2023-02-28T05:56:03;7.65;;;5.47;;
37971;SDS011;23794;48.234;8.344;2023-02-28T05:58:29;7.82;;;5.05;;
37971;SDS011;23794;48.234;8.344;2023-02-28T06:00:58;6.97;;;4.63;;
37971;SDS011;23794;48.234;8.344;2023-02-28T06:03:26;7.90;;;5.82;;
37971;SDS011;23794;48.234;8.344;2023-02-28T06:05:53;7.25;;;4.82;;
37971;SDS011;23794;48.234;8.344;2023-02-28T06:08:20;7.78;;;5.45;;
37971;SDS011;23794;48.234;8.344;2023-02-28T06:10:46;7.97;;;4.88;;
37971;SDS011;23794;48.234;8.344;2023-02-28T06:13:13;8.02;;;5.30;;
37971;SDS011;23794;48.234;8.344;2023-02-28T06:15:42;9.85;;;5.47;;
37971;SDS011;23794;48.234;8.344;2023-02-28T06:18:09;9.27;;;6.35;;
37971;SDS011;23794;48.234;8.344;2023-02-28T06:20:36;8.18;;;5.88;;
37971;SDS011;23794;48.234;8.344;2023-02-28T06:23:02;7.90;;;5.53;;
37971;SDS011;23794;48.234;8.344;2023-02-28T06:25:29;7.65;;;5.88;;
37971;SDS011;23794;48.234;8.344;2023-02-28T06:27:56;7.30;;;5.65;;
37971;SDS011;23794;48.234;8.344;2023-02-28T06:30:22;7.75;;;5.80;;
37971;SDS011;23794;48.234;8.344;2023-02-28T06:32:51;8.20;;;5.60;;
37971;SDS011;23794;48.234;8.344;2023-02-28T06:35:18;9.60;;;5.43;;
37971;SDS011;23794;48.234;8.344;2023-02-28T06:37:45;9.95;;;6.03;;
37971;SDS011;23794;48.234;8.344;2023-02-28T06:40:13;8.20;;;6.65;;
37971;SDS011;23794;48.234;8.344;2023-02-28T06:42:40;14.80;;;8.48;;
37971;SDS011;23794;48.234;8.344;2023-02-28T06:45:07;8.23;;;6.18;;
37971;SDS011;23794;48.234;8.344;2023-02-28T06:47:36;7.97;;;6.22;;
37971;SDS011;23794;48.234;8.344;2023-02-28T06:50:04;13.90;;;7.20;;
37971;SDS011;23794;48.234;8.344;2023-02-28T06:52:32;17.30;;;9.10;;
37971;SDS011;23794;48.234;8.344;2023-02-28T06:54:58;11.95;;;7.90;;
37971;SDS011;23794;48.234;8.344;2023-02-28T06:57:28;9.07;;;5.97;;
37971;SDS011;23794;48.234;8.344;2023-02-28T07:00:00;7.72;;;5.63;;
37971;SDS011;23794;48.234;8.344;2023-02-28T07:02:29;8.82;;;6.22;;
37971;SDS011;23794;48.234;8.344;2023-02-28T07:04:56;10.40;;;6.00;;
37971;SDS011;23794;48.234;8.344;2023-02-28T07:07:23;9.85;;;5.68;;
37971;SDS011;23794;48.234;8.344;2023-02-28T07:09:50;9.07;;;6.35;;
37971;SDS011;23794;48.234;8.344;2023-02-28T07:12:16;8.38;;;6.25;;
37971;SDS011;23794;48.234;8.344;2023-02-28T07:14:43;10.25;;;7.22;;
37971;SDS011;23794;48.234;8.344;2023-02-28T07:17:10;10.55;;;7.60;;
37971;SDS011;23794;48.234;8.344;2023-02-28T07:19:38;10.45;;;7.20;;
37971;SDS011;23794;48.234;8.344;2023-02-28T07:22:06;10.38;;;7.20;;
37971;SDS011;23794;48.234;8.344;2023-02-28T07:24:33;9.48;;;7.32;;
37971;SDS011;23794;48.234;8.344;2023-02-28T07:27:01;9.32;;;7.00;;
37971;SDS011;23794;48.234;8.344;2023-02-28T07:29:28;9.25;;;6.53;;
37971;SDS011;23794;48.234;8.344;2023-02-28T07:31:55;8.95;;;6.38;;
37971;SDS011;23794;48.234;8.344;2023-02-28T07:34:21;10.88;;;7.32;;
37971;SDS011;23794;48.234;8.344;2023-02-28T07:36:48;12.15;;;6.93;;
37971;SDS011;23794;48.234;8.344;2023-02-28T07:39:19;12.32;;;8.68;;
37971;SDS011;23794;48.234;8.344;2023-02-28T07:41:47;10.15;;;7.07;;
37971;SDS011;23794;48.234;8.344;2023-02-28T07:44:13;9.05;;;6.90;;
37971;SDS011;23794;48.234;8.344;2023-02-28T07:46:40;11.07;;;7.50;;
37971;SDS011;23794;48.234;8.344;2023-02-28T07:49:07;12.63;;;7.43;;
37971;SDS011;23794;48.234;8.344;2023-02-28T07:51:36;9.13;;;6.32;;
37971;SDS011;23794;48.234;8.344;2023-02-28T07:54:02;9.88;;;6.95;;
37971;SDS011;23794;48.234;8.344;2023-02-28T07:56:29;9.88;;;7.30;;
37971;SDS011;23794;48.234;8.344;2023-02-28T07:58:57;14.07;;;7.20;;
37971;SDS011;23794;48.234;8.344;2023-02-28T08:01:23;11.10;;;6.65;;
37971;SDS011;23794;48.234;8.344;2023-02-28T08:03:50;11.20;;;7.32;;
37971;SDS011;23794;48.234;8.344;2023-02-28T08:06:23;12.73;;;8.20;;
37971;SDS011;23794;48.234;8.344;2023-02-28T08:08:52;13.73;;;8.27;;
37971;SDS011;23794;48.234;8.344;2023-02-28T08:11:19;9.77;;;6.60;;
37971;SDS011;23794;48.234;8.344;2023-02-28T08:13:45;12.27;;;8.77;;
37971;SDS011;23794;48.234;8.344;2023-02-28T08:16:12;10.32;;;7.55;;
37971;SDS011;23794;48.234;8.344;2023-02-28T08:18:43;11.10;;;8.02;;
37971;SDS011;23794;48.234;8.344;2023-02-28T08:21:10;11.82;;;8.38;;
37971;SDS011;23794;48.234;8.344;2023-02-28T08:23:37;12.25;;;7.78;;
37971;SDS011;23794;48.234;8.344;2023-02-28T08:26:04;10.70;;;7.80;;
37971;SDS011;23794;48.234;8.344;2023-02-28T08:28:31;9.38;;;7.88;;
37971;SDS011;23794;48.234;8.344;2023-02-28T08:30:58;11.45;;;8.05;;
37971;SDS011;23794;48.234;8.344;2023-02-28T08:33:25;12.32;;;8.68;;
37971;SDS011;23794;48.234;8.344;2023-02-28T08:35:53;11.25;;;7.32;;
37971;SDS011;23794;48.234;8.344;2023-02-28T08:38:21;9.70;;;6.95;;
37971;SDS011;23794;48.234;8.344;2023-02-28T08:40:48;12.40;;;7.70;;
37971;SDS011;23794;48.234;8.344;2023-02-28T08:43:16;11.63;;;8.13;;
37971;SDS011;23794;48.234;8.344;2023-02-28T08:45:45;10.57;;;7.10;;
37971;SDS011;23794;48.234;8.344;2023-02-28T08:48:12;13.23;;;8.38;;
37971;SDS011;23794;48.234;8.344;2023-02-28T08:50:39;11.93;;;7.50;;
37971;SDS011;23794;48.234;8.344;2023-02-28T08:53:09;12.05;;;7.75;;
37971;SDS011;23794;48.234;8.344;2023-02-28T08:55:35;10.15;;;7.32;;
37971;SDS011;23794;48.234;8.344;2023-02-28T08:58:02;12.50;;;8.07;;
37971;SDS011;23794;48.234;8.344;2023-02-28T09:00:28;11.20;;;8.18;;
37971;SDS011;23794;48.234;8.344;2023-02-28T09:02:55;11.48;;;7.18;;
37971;SDS011;23794;48.234;8.344;2023-02-28T09:05:21;14.80;;;7.82;;
37971;SDS011;23794;48.234;8.344;2023-02-28T09:07:49;15.15;;;8.75;;
37971;SDS011;23794;48.234;8.344;2023-02-28T09:10:16;10.93;;;7.45;;
37971;SDS011;23794;48.234;8.344;2023-02-28T09:12:42;10.93;;;7.28;;
37971;SDS011;23794;48.234;8.344;2023-02-28T09:15:12;13.38;;;7.80;;
37971;SDS011;23794;48.234;8.344;2023-02-28T09:17:39;12.30;;;8.27;;
37971;SDS011;23794;48.234;8.344;2023-02-28T09:20:05;12.20;;;8.60;;
37971;SDS011;23794;48.234;8.344;2023-02-28T09:22:32;11.02;;;8.23;;
37971;SDS011;23794;48.234;8.344;2023-02-28T09:24:59;10.75;;;6.88;;
37971;SDS011;23794;48.234;8.344;2023-02-28T09:27:26;14.90;;;9.35;;
37971;SDS011;23794;48.234;8.344;2023-02-28T09:29:52;13.30;;;7.38;;
37971;SDS011;23794;48.234;8.344;2023-02-28T09:32:19;11.88;;;8.07;;
37971;SDS011;23794;48.234;8.344;2023-02-28T09:34:46;11.38;;;7.43;;
37971;SDS011;23794;48.234;8.344;2023-02-28T09:37:12;12.73;;;8.32;;
37971;SDS011;23794;48.234;8.344;2023-02-28T09:39:39;12.02;;;7.95;;
37971;SDS011;23794;48.234;8.344;2023-02-28T09:42:05;11.05;;;8.15;;
37971;SDS011;23794;48.234;8.344;2023-02-28T09:44:44;9.52;;;6.88;;
37971;SDS011;23794;48.234;8.344;2023-02-28T09:47:27;15.10;;;7.70;;
37971;SDS011;23794;48.234;8.344;2023-02-28T09:50:03;14.35;;;7.57;;
37971;SDS011;23794;48.234;8.344;2023-02-28T09:52:43;13.10;;;9.70;;
37971;SDS011;23794;48.234;8.344;2023-02-28T09:55:19;12.57;;;7.60;;
37971;SDS011;23794;48.234;8.344;2023-02-28T09:58:18;13.23;;;7.72;;
37971;SDS011;23794;48.234;8.344;2023-02-28T10:00:54;11.80;;;7.25;;
37971;SDS011;23794;48.234;8.344;2023-02-28T10:06:25;11.48;;;8.43;;
37971;SDS011;23794;48.234;8.344;2023-02-28T10:09:07;11.52;;;7.88;;
37971;SDS011;23794;48.234;8.344;2023-02-28T10:11:40;12.98;;;9.10;;
37971;SDS011;23794;48.234;8.344;2023-02-28T10:14:19;12.20;;;8.35;;
37971;SDS011;23794;48.234;8.344;2023-02-28T10:16:49;11.50;;;8.20;;
37971;SDS011;23794;48.234;8.344;2023-02-28T10:19:33;12.23;;;7.50;;
37971;SDS011;23794;48.234;8.344;2023-02-28T10:24:54;12.02;;;8.45;;
37971;SDS011;23794;48.234;8.344;2023-02-28T10:27:32;12.27;;;8.95;;
37971;SDS011;23794;48.234;8.344;2023-02-28T10:30:01;13.48;;;8.63;;
37971;SDS011;23794;48.234;8.344;2023-02-28T10:32:32;10.55;;;7.90;;
37971;SDS011;23794;48.234;8.344;2023-02-28T10:37:40;17.08;;;8.93;;
37971;SDS011;23794;48.234;8.344;2023-02-28T10:40:25;14.20;;;9.20;;
37971;SDS011;23794;48.234;8.344;2023-02-28T10:45:26;11.60;;;8.32;;
37971;SDS011;23794;48.234;8.344;2023-02-28T10:47:56;15.25;;;9.40;;
37971;SDS011;23794;48.234;8.344;2023-02-28T11:01:20;12.40;;;9.10;;
37971;SDS011;23794;48.234;8.344;2023-02-28T11:03:51;16.37;;;9.07;;
37971;SDS011;23794;48.234;8.344;2023-02-28T11:06:19;11.75;;;8.55;;
37971;SDS011;23794;48.234;8.344;2023-02-28T11:08:52;12.35;;;8.55;;
37971;SDS011;23794;48.234;8.344;2023-02-28T11:11:25;12.32;;;8.88;;
37971;SDS011;23794;48.234;8.344;2023-02-28T11:13:56;13.82;;;8.93;;
37971;SDS011;23794;48.234;8.344;2023-02-28T11:16:36;11.93;;;8.18;;
37971;SDS011;23794;48.234;8.344;2023-02-28T11:19:04;12.40;;;8.55;;
37971;SDS011;23794;48.234;8.344;2023-02-28T11:21:45;17.10;;;10.05;;
37971;SDS011;23794;48.234;8.344;2023-02-28T11:24:23;13.18;;;9.32;;
37971;SDS011;23794;48.234;8.344;2023-02-28T11:26:53;11.60;;;7.93;;
37971;SDS011;23794;48.234;8.344;2023-02-28T11:29:22;12.75;;;9.55;;
37971;SDS011;23794;48.234;8.344;2023-02-28T11:34:36;14.65;;;8.57;;
37971;SDS011;23794;48.234;8.344;2023-02-28T11:37:04;15.32;;;9.32;;
37971;SDS011;23794;48.234;8.344;2023-02-28T11:39:36;14.38;;;8.90;;
37971;SDS011;23794;48.234;8.344;2023-02-28T11:44:58;12.95;;;8.38;;
37971;SDS011;23794;48.234;8.344;2023-02-28T11:47:50;13.43;;;8.95;;
37971;SDS011;23794;48.234;8.344;2023-02-28T11:53:48;13.82;;;9.68;;
37971;SDS011;23794;48.234;8.344;2023-02-28T11:56:25;12.38;;;8.82;;
37971;SDS011;23794;48.234;8.344;2023-02-28T12:07:15;12.70;;;8.73;;
37971;SDS011;23794;48.234;8.344;2023-02-28T12:18:02;13.60;;;8.93;;
37971;SDS011;23794;48.234;8.344;2023-02-28T12:20:43;12.70;;;8.55;;
37971;SDS011;23794;48.234;8.344;2023-02-28T12:23:36;12.05;;;9.30;;
37971;SDS011;23794;48.234;8.344;2023-02-28T12:26:35;10.50;;;8.00;;
37971;SDS011;23794;48.234;8.344;2023-02-28T12:29:48;13.55;;;10.10;;
37971;SDS011;23794;48.234;8.344;2023-02-28T12:34:34;12.70;;;9.50;;
37971;SDS011;23794;48.234;8.344;2023-02-28T12:37:06;12.10;;;8.65;;
37971;SDS011;23794;48.234;8.344;2023-02-28T12:39:37;12.65;;;8.82;;
37971;SDS011;23794;48.234;8.344;2023-02-28T12:42:27;12.65;;;9.02;;
37971;SDS011;23794;48.234;8.344;2023-02-28T12:44:58;14.23;;;8.88;;
37971;SDS011;23794;48.234;8.344;2023-02-28T12:47:27;12.63;;;8.52;;
37971;SDS011;23794;48.234;8.344;2023-02-28T12:50:02;12.50;;;8.65;;
37971;SDS011;23794;48.234;8.344;2023-02-28T12:55:19;12.98;;;9.75;;
37971;SDS011;23794;48.234;8.344;2023-02-28T13:00:23;13.63;;;8.77;;
37971;SDS011;23794;48.234;8.344;2023-02-28T13:03:06;13.38;;;8.55;;
37971;SDS011;23794;48.234;8.344;2023-02-28T13:11:23;12.18;;;8.70;;
37971;SDS011;23794;48.234;8.344;2023-02-28T13:13:58;15.38;;;9.43;;
37971;SDS011;23794;48.234;8.344;2023-02-28T13:16:26;12.48;;;9.20;;
37971;SDS011;23794;48.234;8.344;2023-02-28T13:18:53;11.85;;;8.73;;
37971;SDS011;23794;48.234;8.344;2023-02-28T13:21:41;11.07;;;8.13;;
37971;SDS011;23794;48.234;8.344;2023-02-28T13:24:11;12.18;;;8.68;;
37971;SDS011;23794;48.234;8.344;2023-02-28T13:29:42;11.70;;;8.98;;
37971;SDS011;23794;48.234;8.344;2023-02-28T13:34:41;13.82;;;10.15;;
37971;SDS011;23794;48.234;8.344;2023-02-28T13:37:32;15.77;;;10.30;;
37971;SDS011;23794;48.234;8.344;2023-02-28T13:42:46;12.80;;;9.23;;
37971;SDS011;23794;48.234;8.344;2023-02-28T13:45:20;12.10;;;8.75;;
37971;SDS011;23794;48.234;8.344;2023-02-28T13:47:58;11.90;;;8.77;;
37971;SDS011;23794;48.234;8.344;2023-02-28T13:55:45;13.55;;;9.32;;
37971;SDS011;23794;48.234;8.344;2023-02-28T13:58:27;11.70;;;8.85;;
37971;SDS011;23794;48.234;8.344;2023-02-28T14:04:18;12.27;;;8.93;;
37971;SDS011;23794;48.234;8.344;2023-02-28T14:07:09;11.30;;;8.18;;
37971;SDS011;23794;48.234;8.344;2023-02-28T14:09:45;11.13;;;8.00;;
37971;SDS011;23794;48.234;8.344;2023-02-28T14:17:56;11.93;;;9.48;;
37971;SDS011;23794;48.234;8.344;2023-02-28T14:20:26;12.45;;;9.02;;
37971;SDS011;23794;48.234;8.344;2023-02-28T14:31:38;13.52;;;8.55;;
37971;SDS011;23794;48.234;8.344;2023-02-28T14:34:23;10.45;;;7.93;;
37971;SDS011;23794;48.234;8.344;2023-02-28T14:37:02;9.25;;;7.82;;
37971;SDS011;23794;48.234;8.344;2023-02-28T14:39:29;12.00;;;8.73;;
37971;SDS011;23794;48.234;8.344;2023-02-28T14:41:59;9.70;;;7.65;;
37971;SDS011;23794;48.234;8.344;2023-02-28T14:44:30;11.70;;;8.65;;
37971;SDS011;23794;48.234;8.344;2023-02-28T14:46:58;11.05;;;8.85;;
37971;SDS011;23794;48.234;8.344;2023-02-28T14:49:44;10.85;;;7.90;;
37971;SDS011;23794;48.234;8.344;2023-02-28T14:52:15;13.70;;;8.52;;
37971;SDS011;23794;48.234;8.344;2023-02-28T14:54:46;12.13;;;8.65;;
37971;SDS011;23794;48.234;8.344;2023-02-28T14:57:23;11.38;;;7.90;;
37971;SDS011;23794;48.234;8.344;2023-02-28T15:00:03;12.45;;;8.10;;
37971;SDS011;23794;48.234;8.344;2023-02-28T15:02:41;10.60;;;8.70;;
37971;SDS011;23794;48.234;8.344;2023-02-28T15:07:45;13.15;;;9.43;;
37971;SDS011;23794;48.234;8.344;2023-02-28T15:12:58;11.32;;;8.45;;
37971;SDS011;23794;48.234;8.344;2023-02-28T15:15:33;10.43;;;7.93;;
37971;SDS011;23794;48.234;8.344;2023-02-28T15:21:15;13.50;;;8.75;;
37971;SDS011;23794;48.234;8.344;2023-02-28T15:23:55;13.43;;;8.98;;
37971;SDS011;23794;48.234;8.344;2023-02-28T15:26:27;12.00;;;8.43;;
37971;SDS011;23794;48.234;8.344;2023-02-28T15:29:05;12.32;;;9.93;;
37971;SDS011;23794;48.234;8.344;2023-02-28T15:31:35;11.43;;;8.75;;
37971;SDS011;23794;48.234;8.344;2023-02-28T15:40:13;11.88;;;8.52;;
37971;SDS011;23794;48.234;8.344;2023-02-28T15:42:57;11.68;;;8.18;;
37971;SDS011;23794;48.234;8.344;2023-02-28T15:48:23;11.23;;;8.38;;
37971;SDS011;23794;48.234;8.344;2023-02-28T15:50:56;10.82;;;8.45;;
37971;SDS011;23794;48.234;8.344;2023-02-28T15:53:32;14.25;;;9.35;;
37971;SDS011;23794;48.234;8.344;2023-02-28T15:56:03;15.40;;;9.32;;
37971;SDS011;23794;48.234;8.344;2023-02-28T15:58:32;16.40;;;11.65;;
37971;SDS011;23794;48.234;8.344;2023-02-28T16:01:08;11.07;;;8.13;;
37971;SDS011;23794;48.234;8.344;2023-02-28T16:03:46;14.15;;;9.65;;
37971;SDS011;23794;48.234;8.344;2023-02-28T16:09:03;12.00;;;8.43;;
37971;SDS011;23794;48.234;8.344;2023-02-28T16:11:32;11.68;;;8.90;;
37971;SDS011;23794;48.234;8.344;2023-02-28T16:14:01;11.77;;;8.73;;
37971;SDS011;23794;48.234;8.344;2023-02-28T16:16:27;12.18;;;8.93;;
37971;SDS011;23794;48.234;8.344;2023-02-28T16:18:54;14.43;;;9.32;;
37971;SDS011;23794;48.234;8.344;2023-02-28T16:21:21;14.95;;;8.85;;
37971;SDS011;23794;48.234;8.344;2023-02-28T16:23:48;12.73;;;8.90;;
37971;SDS011;23794;48.234;8.344;2023-02-28T16:26:19;15.45;;;10.13;;
37971;SDS011;23794;48.234;8.344;2023-02-28T16:28:50;13.43;;;9.43;;
37971;SDS011;23794;48.234;8.344;2023-02-28T16:31:17;14.15;;;9.30;;
37971;SDS011;23794;48.234;8.344;2023-02-28T16:33:45;12.45;;;8.38;;
37971;SDS011;23794;48.234;8.344;2023-02-28T16:36:13;11.00;;;8.30;;
37971;SDS011;23794;48.234;8.344;2023-02-28T16:38:41;14.02;;;8.70;;
37971;SDS011;23794;48.234;8.344;2023-02-28T16:41:08;15.93;;;10.40;;
37971;SDS011;23794;48.234;8.344;2023-02-28T16:43:43;12.90;;;8.68;;
37971;SDS011;23794;48.234;8.344;2023-02-28T16:46:11;13.20;;;8.65;;
37971;SDS011;23794;48.234;8.344;2023-02-28T16:48:39;12.00;;;8.88;;
37971;SDS011;23794;48.234;8.344;2023-02-28T16:51:13;11.88;;;9.02;;
37971;SDS011;23794;48.234;8.344;2023-02-28T16:53:42;12.70;;;9.40;;
37971;SDS011;23794;48.234;8.344;2023-02-28T16:56:27;12.10;;;9.25;;
37971;SDS011;23794;48.234;8.344;2023-02-28T16:58:54;14.40;;;9.15;;
37971;SDS011;23794;48.234;8.344;2023-02-28T17:01:24;13.43;;;9.82;;
37971;SDS011;23794;48.234;8.344;2023-02-28T17:03:54;13.57;;;8.95;;
37971;SDS011;23794;48.234;8.344;2023-02-28T17:06:24;13.02;;;9.13;;
37971;SDS011;23794;48.234;8.344;2023-02-28T17:08:57;15.07;;;10.98;;
37971;SDS011;23794;48.234;8.344;2023-02-28T17:11:24;14.55;;;9.65;;
37971;SDS011;23794;48.234;8.344;2023-02-28T17:13:51;15.32;;;11.20;;
37971;SDS011;23794;48.234;8.344;2023-02-28T17:16:22;14.68;;;10.88;;
37971;SDS011;23794;48.234;8.344;2023-02-28T17:18:59;16.25;;;10.88;;
37971;SDS011;23794;48.234;8.344;2023-02-28T17:21:28;15.23;;;10.57;;
37971;SDS011;23794;48.234;8.344;2023-02-28T17:23:56;15.20;;;10.98;;